createdAt,value
2023-02-15T00:00:12.239Z,5.90
2023-02-15T00:02:40.085Z,5.84
2023-02-15T00:05:09.548Z,5.78
2023-02-15T00:07:37.348Z,5.76
2023-02-15T00:10:08.745Z,5.78
2023-02-15T00:12:36.632Z,5.28
2023-02-15T00:15:04.814Z,5.57
2023-02-15T00:17:32.547Z,5.63
2023-02-15T00:20:00.364Z,5.48
2023-02-15T00:22:28.438Z,5.66
2023-02-15T00:24:56.275Z,5.72
2023-02-15T00:27:25.687Z,5.50
2023-02-15T00:29:53.467Z,5.26
2023-02-15T00:32:21.298Z,5.20
2023-02-15T00:34:49.104Z,5.27
2023-02-15T00:37:16.924Z,5.31
2023-02-15T00:39:44.756Z,5.44
2023-02-15T00:42:12.543Z,5.34
2023-02-15T00:44:41.614Z,5.29
2023-02-15T00:47:09.383Z,5.42
2023-02-15T00:49:37.161Z,5.33
2023-02-15T00:52:05.312Z,5.42
2023-02-15T00:54:33.017Z,5.36
2023-02-15T00:57:00.810Z,5.36
2023-02-15T00:59:28.568Z,5.42
2023-02-15T01:01:57.708Z,5.33
2023-02-15T01:04:25.483Z,5.31
2023-02-15T01:07:00.493Z,5.11
2023-02-15T01:09:28.414Z,4.90
2023-02-15T01:11:56.180Z,5.26
2023-02-15T01:14:24.028Z,5.21
2023-02-15T01:16:51.877Z,4.93
2023-02-15T01:19:21.068Z,5.17
2023-02-15T01:21:48.838Z,5.12
2023-02-15T01:24:17.078Z,5.03
2023-02-15T01:26:44.853Z,5.04
2023-02-15T01:29:12.753Z,5.15
2023-02-15T01:31:40.604Z,5.12
2023-02-15T01:34:08.466Z,5.05
2023-02-15T01:36:37.810Z,5.13
2023-02-15T01:39:05.808Z,4.90
2023-02-15T01:41:33.777Z,5.03
2023-02-15T01:44:04.860Z,5.00
2023-02-15T01:46:40.155Z,4.80
2023-02-15T01:49:16.305Z,4.86
2023-02-15T01:51:50.814Z,4.84
2023-02-15T01:54:28.434Z,4.66
2023-02-15T01:57:01.272Z,4.81
2023-02-15T01:59:31.808Z,4.62
2023-02-15T02:02:03.960Z,4.77
2023-02-15T02:04:40.332Z,4.21
2023-02-15T02:07:13.619Z,4.11
2023-02-15T02:09:41.625Z,4.56
2023-02-15T02:12:11.302Z,4.52
2023-02-15T02:14:42.231Z,4.29
2023-02-15T02:17:19.624Z,4.62
2023-02-15T02:20:36.678Z,4.79
2023-02-15T02:23:25.495Z,4.85
2023-02-15T02:26:54.013Z,4.92
2023-02-15T02:30:09.645Z,4.71
2023-02-15T02:33:30.071Z,4.78
2023-02-15T02:36:11.855Z,4.53
2023-02-15T02:38:55.080Z,4.93
2023-02-15T02:41:32.966Z,4.65
2023-02-15T02:44:12.476Z,4.55
2023-02-15T02:46:54.302Z,4.79
2023-02-15T02:49:34.485Z,4.56
2023-02-15T02:52:03.640Z,4.04
2023-02-15T02:54:36.491Z,4.54
2023-02-15T02:57:10.700Z,4.55
2023-02-15T02:59:47.260Z,4.65
2023-02-15T03:02:22.491Z,4.10
2023-02-15T03:05:04.517Z,4.34
2023-02-15T03:07:34.263Z,4.59
2023-02-15T03:10:06.943Z,4.66
2023-02-15T03:12:39.066Z,4.65
2023-02-15T03:15:15.084Z,4.23
2023-02-15T03:17:49.851Z,4.25
2023-02-15T03:20:26.323Z,4.62
2023-02-15T03:23:01.718Z,4.61
2023-02-15T03:25:36.246Z,4.68
2023-02-15T03:28:09.021Z,4.78
2023-02-15T03:30:39.955Z,4.33
2023-02-15T03:33:10.516Z,3.55
2023-02-15T03:35:54.239Z,4.20
2023-02-15T03:38:29.980Z,3.61
2023-02-15T03:41:14.141Z,3.84
2023-02-15T03:43:53.530Z,4.34
2023-02-15T03:46:30.234Z,4.48
2023-02-15T03:49:05.778Z,4.52
2023-02-15T03:51:41.031Z,4.36
2023-02-15T03:54:12.446Z,4.38
2023-02-15T03:57:03.636Z,4.18
2023-02-15T03:59:48.764Z,4.13
2023-02-15T04:02:29.547Z,4.23
2023-02-15T04:04:57.288Z,4.25
2023-02-15T04:07:26.475Z,3.69
2023-02-15T04:10:11.887Z,3.89
2023-02-15T04:12:39.648Z,3.84
2023-02-15T04:15:40.487Z,3.92
2023-02-15T04:18:08.260Z,3.80
2023-02-15T04:20:53.409Z,4.03
2023-02-15T04:23:40.020Z,4.06
2023-02-15T04:26:08.019Z,4.26
2023-02-15T04:28:35.827Z,4.07
2023-02-15T04:31:03.606Z,4.26
2023-02-15T04:33:31.421Z,4.43
2023-02-15T04:35:59.443Z,4.47
2023-02-15T04:38:28.762Z,4.46
2023-02-15T04:40:56.544Z,4.57
2023-02-15T04:43:24.333Z,4.67
2023-02-15T04:45:52.722Z,4.45
2023-02-15T04:48:20.548Z,4.46
2023-02-15T04:50:48.352Z,3.86
2023-02-15T04:53:18.257Z,3.38
2023-02-15T04:55:47.456Z,4.02
2023-02-15T04:58:15.267Z,3.84
2023-02-15T05:00:43.142Z,3.92
2023-02-15T05:03:11.175Z,4.18
2023-02-15T05:05:38.975Z,3.55
2023-02-15T05:08:06.788Z,3.74
2023-02-15T05:10:34.567Z,4.15
2023-02-15T05:13:03.661Z,4.18
2023-02-15T05:15:31.457Z,3.79
2023-02-15T05:17:59.277Z,3.69
2023-02-15T05:20:27.176Z,4.08
2023-02-15T05:22:55.960Z,3.98
2023-02-15T05:25:41.582Z,4.22
2023-02-15T05:28:22.097Z,4.20
2023-02-15T05:30:51.903Z,4.00
2023-02-15T05:33:20.018Z,4.16
2023-02-15T05:35:47.766Z,4.26
2023-02-15T05:38:15.525Z,4.16
2023-02-15T05:40:43.305Z,4.10
2023-02-15T05:43:12.536Z,4.36
2023-02-15T05:45:40.311Z,4.26
2023-02-15T05:48:08.110Z,3.98
2023-02-15T05:50:35.858Z,4.18
2023-02-15T05:53:03.655Z,4.17
2023-02-15T05:55:31.408Z,4.34
2023-02-15T05:57:59.291Z,4.25
2023-02-15T06:00:28.476Z,3.72
2023-02-15T06:02:56.184Z,4.12
2023-02-15T06:05:24.345Z,3.90
2023-02-15T06:07:52.205Z,3.93
2023-02-15T06:10:20.338Z,3.92
2023-02-15T06:12:48.190Z,3.88
2023-02-15T06:15:16.114Z,3.86
2023-02-15T06:17:45.683Z,3.92
2023-02-15T06:20:14.851Z,3.97
2023-02-15T06:22:42.648Z,3.90
2023-02-15T06:25:12.157Z,4.18
2023-02-15T06:27:43.392Z,4.33
2023-02-15T06:30:13.192Z,4.33
2023-02-15T06:32:41.534Z,4.44
2023-02-15T06:35:10.888Z,4.12
2023-02-15T06:37:38.664Z,3.98
2023-02-15T06:40:09.068Z,4.03
2023-02-15T06:42:36.815Z,4.32
2023-02-15T06:45:07.010Z,4.36
2023-02-15T06:47:35.465Z,4.02
2023-02-15T06:50:03.330Z,4.14
2023-02-15T06:52:32.523Z,4.29
2023-02-15T06:55:00.326Z,4.20
2023-02-15T06:57:28.171Z,4.35
2023-02-15T06:59:56.127Z,4.22
2023-02-15T07:02:23.886Z,4.49
2023-02-15T07:04:51.630Z,4.36
2023-02-15T07:07:19.687Z,4.50
2023-02-15T07:09:48.968Z,4.64
2023-02-15T07:12:35.082Z,4.35
2023-02-15T07:15:05.345Z,4.29
2023-02-15T07:17:35.871Z,4.64
2023-02-15T07:20:05.576Z,4.40
2023-02-15T07:22:34.991Z,4.76
2023-02-15T07:25:04.448Z,4.38
2023-02-15T07:27:32.920Z,4.88
2023-02-15T07:30:01.049Z,4.78
2023-02-15T07:32:31.379Z,5.15
2023-02-15T07:35:00.028Z,5.12
2023-02-15T07:37:29.128Z,5.05
2023-02-15T07:39:56.951Z,5.53
2023-02-15T07:42:26.124Z,5.47
2023-02-15T07:44:54.279Z,5.56
2023-02-15T07:47:22.034Z,5.83
2023-02-15T07:49:50.358Z,6.04
2023-02-15T07:52:18.217Z,5.85
2023-02-15T07:54:46.004Z,6.05
2023-02-15T07:57:13.747Z,6.84
2023-02-15T07:59:42.931Z,7.53
2023-02-15T08:02:12.724Z,7.26
2023-02-15T08:04:40.951Z,7.55
2023-02-15T08:07:08.852Z,7.89
2023-02-15T08:09:36.587Z,8.44
2023-02-15T08:12:05.192Z,8.25
2023-02-15T08:14:33.508Z,9.02
2023-02-15T08:17:03.635Z,8.88
2023-02-15T08:19:35.380Z,9.21
2023-02-15T08:22:06.293Z,9.53
2023-02-15T08:24:37.776Z,8.91
2023-02-15T08:27:07.848Z,9.65
2023-02-15T08:29:38.597Z,9.69
2023-02-15T08:32:11.132Z,9.71
2023-02-15T08:34:42.721Z,10.26
2023-02-15T08:37:10.829Z,11.12
2023-02-15T08:39:38.988Z,11.06
2023-02-15T08:42:06.855Z,11.07
2023-02-15T08:44:34.618Z,11.75
2023-02-15T08:47:04.724Z,10.83
2023-02-15T08:49:34.211Z,11.44
2023-02-15T08:52:02.098Z,11.42
2023-02-15T08:54:29.907Z,11.30
2023-02-15T08:56:57.840Z,10.96
2023-02-15T08:59:27.775Z,11.74
2023-02-15T09:01:56.639Z,11.37
2023-02-15T09:04:24.552Z,11.86
2023-02-15T09:06:54.169Z,12.24
2023-02-15T09:09:22.776Z,11.83
2023-02-15T09:11:58.702Z,11.58
2023-02-15T09:14:28.865Z,11.18
2023-02-15T09:16:57.266Z,11.66
2023-02-15T09:19:26.040Z,12.21
2023-02-15T09:21:55.452Z,12.36
2023-02-15T09:24:23.344Z,13.41
2023-02-15T09:26:51.473Z,12.82
2023-02-15T09:29:21.057Z,13.25
2023-02-15T09:31:51.582Z,13.44
2023-02-15T09:34:22.643Z,13.75
2023-02-15T09:36:51.876Z,13.69
2023-02-15T09:39:24.535Z,14.65
2023-02-15T09:42:37.206Z,14.72
2023-02-15T09:45:30.986Z,13.80
2023-02-15T09:48:41.582Z,15.39
2023-02-15T09:51:45.301Z,14.48
2023-02-15T09:54:40.528Z,14.40
2023-02-15T09:57:20.680Z,15.20
2023-02-15T10:00:06.134Z,15.16
2023-02-15T10:02:58.969Z,14.80
2023-02-15T10:05:44.236Z,14.21
2023-02-15T10:08:51.024Z,14.56
2023-02-15T10:11:43.141Z,14.56
2023-02-15T10:14:38.795Z,14.33
2023-02-15T10:17:27.221Z,14.29
2023-02-15T10:20:12.747Z,13.57
2023-02-15T10:22:59.605Z,13.82
2023-02-15T10:25:47.262Z,13.81
2023-02-15T10:28:21.469Z,13.41
2023-02-15T10:30:52.193Z,13.48
2023-02-15T10:33:41.333Z,12.62
2023-02-15T10:36:29.584Z,13.83
2023-02-15T10:39:09.465Z,12.73
2023-02-15T10:41:52.792Z,13.49
2023-02-15T10:44:40.590Z,13.91
2023-02-15T10:47:44.653Z,14.14
2023-02-15T10:50:31.760Z,13.04
2023-02-15T10:53:19.096Z,13.69
2023-02-15T10:56:01.147Z,13.41
2023-02-15T10:58:45.820Z,13.94
2023-02-15T11:01:26.474Z,13.92
2023-02-15T11:04:37.791Z,14.61
2023-02-15T11:07:14.591Z,14.26
2023-02-15T11:09:49.305Z,14.66
2023-02-15T11:12:24.718Z,14.34
2023-02-15T11:15:02.037Z,14.62
2023-02-15T11:17:40.087Z,14.60
2023-02-15T11:20:25.055Z,15.01
2023-02-15T11:22:55.498Z,15.43
2023-02-15T11:25:32.093Z,15.26
2023-02-15T11:28:05.601Z,15.93
2023-02-15T11:30:46.140Z,16.17
2023-02-15T11:33:26.249Z,16.58
2023-02-15T11:36:02.631Z,16.37
2023-02-15T11:38:34.654Z,16.96
2023-02-15T11:41:07.803Z,17.01
2023-02-15T11:43:45.127Z,16.87
2023-02-15T11:46:15.816Z,17.22
2023-02-15T11:48:45.089Z,17.95
2023-02-15T11:51:18.196Z,17.89
2023-02-15T11:53:48.259Z,17.74
2023-02-15T11:56:18.766Z,17.02
2023-02-15T11:58:52.866Z,16.52
2023-02-15T12:01:31.111Z,16.50
2023-02-15T12:04:06.864Z,16.88
2023-02-15T12:06:39.988Z,16.29
2023-02-15T12:09:23.719Z,16.19
2023-02-15T12:11:51.658Z,16.72
2023-02-15T12:14:19.533Z,16.88
2023-02-15T12:16:51.344Z,17.11
2023-02-15T12:19:33.785Z,16.42
2023-02-15T12:22:05.754Z,16.85
2023-02-15T12:24:40.081Z,16.40
2023-02-15T12:27:19.219Z,16.89
2023-02-15T12:29:53.801Z,17.41
2023-02-15T12:32:28.386Z,17.13
2023-02-15T12:35:08.899Z,17.59
2023-02-15T12:37:37.158Z,16.53
2023-02-15T12:40:22.470Z,17.07
2023-02-15T12:42:50.439Z,16.94
2023-02-15T12:45:28.862Z,17.74
2023-02-15T12:48:16.760Z,17.33
2023-02-15T12:51:06.218Z,17.40
2023-02-15T12:53:37.309Z,17.32
2023-02-15T12:56:08.403Z,17.35
2023-02-15T12:58:37.552Z,17.40
2023-02-15T13:01:20.428Z,17.61
2023-02-15T13:04:23.091Z,17.06
2023-02-15T13:06:56.471Z,17.71
2023-02-15T13:09:40.013Z,17.19
2023-02-15T13:12:24.219Z,17.86
2023-02-15T13:14:55.775Z,17.61
2023-02-15T13:17:30.430Z,18.02
2023-02-15T13:20:05.605Z,17.96
2023-02-15T13:22:43.893Z,18.25
2023-02-15T13:25:19.759Z,18.55
2023-02-15T13:27:53.838Z,17.91
2023-02-15T13:30:32.112Z,17.61
2023-02-15T13:33:05.716Z,18.08
2023-02-15T13:35:46.524Z,17.81
2023-02-15T13:38:47.709Z,17.92
2023-02-15T13:41:25.367Z,17.74
2023-02-15T13:44:09.614Z,17.77
2023-02-15T13:46:54.382Z,17.40
2023-02-15T13:49:45.794Z,17.05
2023-02-15T13:52:24.131Z,17.79
2023-02-15T13:55:33.624Z,17.70
2023-02-15T13:58:46.167Z,17.61
2023-02-15T14:01:26.004Z,16.93
2023-02-15T14:04:29.895Z,16.83
2023-02-15T14:07:21.006Z,17.41
2023-02-15T14:10:04.207Z,17.06
2023-02-15T14:12:57.936Z,15.93
2023-02-15T14:15:40.569Z,16.02
2023-02-15T14:18:26.199Z,16.36
2023-02-15T14:21:08.428Z,15.95
2023-02-15T14:23:59.035Z,15.98
2023-02-15T14:26:43.780Z,15.44
2023-02-15T14:29:31.376Z,15.53
2023-02-15T14:32:10.095Z,15.59
2023-02-15T14:34:50.944Z,15.45
2023-02-15T14:37:33.857Z,15.08
2023-02-15T14:40:29.068Z,15.38
2023-02-15T14:43:08.787Z,15.43
2023-02-15T14:45:50.574Z,15.24
2023-02-15T14:48:27.690Z,15.19
2023-02-15T14:50:55.489Z,15.35
2023-02-15T14:53:43.046Z,15.53
2023-02-15T14:56:24.862Z,15.35
2023-02-15T14:59:10.759Z,14.91
2023-02-15T15:01:42.480Z,14.87
2023-02-15T15:04:16.038Z,14.90
2023-02-15T15:06:45.677Z,15.00
2023-02-15T15:09:22.472Z,15.00
2023-02-15T15:11:52.461Z,14.92
2023-02-15T15:14:41.312Z,14.49
2023-02-15T15:17:14.991Z,15.12
2023-02-15T15:20:14.449Z,14.12
2023-02-15T15:22:44.803Z,14.59
2023-02-15T15:25:46.545Z,14.44
2023-02-15T15:28:56.897Z,14.51
2023-02-15T15:31:34.203Z,13.59
2023-02-15T15:35:17.937Z,13.99
2023-02-15T15:38:31.319Z,14.01
2023-02-15T15:41:29.546Z,13.81
2023-02-15T15:44:55.279Z,13.80
2023-02-15T15:48:05.222Z,13.94
2023-02-15T15:50:35.618Z,14.13
2023-02-15T15:53:07.246Z,13.63
2023-02-15T15:55:36.589Z,13.78
2023-02-15T15:58:10.171Z,13.74
2023-02-15T16:00:46.444Z,13.64
2023-02-15T16:03:17.571Z,13.67
2023-02-15T16:05:45.474Z,13.44
2023-02-15T16:08:13.381Z,13.64
2023-02-15T16:10:42.736Z,13.62
2023-02-15T16:13:16.833Z,13.52
2023-02-15T16:15:50.452Z,13.33
2023-02-15T16:18:20.810Z,13.53
2023-02-15T16:20:55.689Z,13.22
2023-02-15T16:24:05.873Z,12.92
2023-02-15T16:27:07.438Z,12.88
2023-02-15T16:29:36.856Z,12.92
2023-02-15T16:32:16.542Z,12.98
2023-02-15T16:34:56.954Z,12.86
2023-02-15T16:37:28.192Z,12.68
2023-02-15T16:39:57.576Z,12.73
2023-02-15T16:42:40.080Z,12.59
2023-02-15T16:45:16.540Z,12.14
2023-02-15T16:47:48.947Z,12.53
2023-02-15T16:50:21.981Z,12.16
2023-02-15T16:52:50.443Z,12.36
2023-02-15T16:55:25.282Z,12.62
2023-02-15T16:57:58.557Z,12.40
2023-02-15T17:00:33.142Z,12.38
2023-02-15T17:03:03.960Z,12.26
2023-02-15T17:05:34.524Z,12.32
2023-02-15T17:08:17.392Z,12.13
2023-02-15T17:11:03.990Z,12.02
2023-02-15T17:13:32.558Z,11.68
2023-02-15T17:16:31.116Z,12.17
2023-02-15T17:19:00.685Z,12.30
2023-02-15T17:21:35.276Z,12.07
2023-02-15T17:24:05.913Z,12.26
2023-02-15T17:26:37.768Z,12.29
2023-02-15T17:29:25.295Z,11.92
2023-02-15T17:31:58.539Z,11.78
2023-02-15T17:35:04.157Z,12.16
2023-02-15T17:37:47.613Z,12.05
2023-02-15T17:40:28.673Z,12.04
2023-02-15T17:42:57.041Z,11.65
2023-02-15T17:45:32.344Z,11.89
2023-02-15T17:48:06.716Z,11.65
2023-02-15T17:50:35.050Z,11.56
2023-02-15T17:53:03.834Z,11.74
2023-02-15T17:55:38.843Z,11.77
2023-02-15T17:58:10.132Z,11.79
2023-02-15T18:01:01.716Z,11.81
2023-02-15T18:04:00.958Z,11.52
2023-02-15T18:06:46.931Z,11.24
2023-02-15T18:09:34.354Z,11.44
2023-02-15T18:12:03.063Z,11.58
2023-02-15T18:14:31.673Z,10.94
2023-02-15T18:16:59.512Z,10.93
2023-02-15T18:19:29.201Z,10.94
2023-02-15T18:21:57.935Z,11.05
2023-02-15T18:24:27.655Z,10.79
2023-02-15T18:26:56.028Z,10.65
2023-02-15T18:29:23.782Z,10.72
2023-02-15T18:31:56.900Z,10.90
2023-02-15T18:34:30.917Z,11.13
2023-02-15T18:37:00.931Z,11.34
2023-02-15T18:39:37.877Z,11.32
2023-02-15T18:42:07.234Z,10.97
2023-02-15T18:44:35.032Z,10.92
2023-02-15T18:47:02.803Z,10.39
2023-02-15T18:49:32.126Z,10.91
2023-02-15T18:51:59.952Z,10.88
2023-02-15T18:54:27.735Z,10.84
2023-02-15T18:56:58.996Z,10.96
2023-02-15T18:59:30.443Z,10.75
2023-02-15T19:02:00.290Z,10.63
2023-02-15T19:04:28.121Z,10.98
2023-02-15T19:06:57.307Z,11.00
2023-02-15T19:09:27.761Z,11.04
2023-02-15T19:11:57.455Z,10.61
2023-02-15T19:14:29.773Z,10.48
2023-02-15T19:17:00.097Z,10.48
2023-02-15T19:19:28.722Z,10.57
2023-02-15T19:21:57.921Z,10.65
2023-02-15T19:24:38.108Z,10.45
2023-02-15T19:27:08.056Z,10.47
2023-02-15T19:29:35.879Z,10.53
2023-02-15T19:32:04.192Z,10.82
2023-02-15T19:34:31.983Z,10.60
2023-02-15T19:37:01.188Z,10.51
2023-02-15T19:39:34.807Z,10.25
2023-02-15T19:42:02.727Z,10.53
2023-02-15T19:44:30.451Z,10.45
2023-02-15T19:46:58.441Z,10.14
2023-02-15T19:49:26.239Z,10.04
2023-02-15T19:51:54.452Z,10.04
2023-02-15T19:54:30.759Z,10.00
2023-02-15T19:56:59.105Z,10.03
2023-02-15T19:59:29.695Z,9.92
2023-02-15T20:01:58.024Z,10.24
2023-02-15T20:04:27.516Z,10.34
2023-02-15T20:07:00.391Z,10.30
2023-02-15T20:09:33.719Z,10.27
2023-02-15T20:12:01.499Z,10.36
2023-02-15T20:14:29.232Z,10.26
2023-02-15T20:16:57.102Z,9.86
2023-02-15T20:19:24.967Z,10.01
2023-02-15T20:21:54.824Z,10.10
2023-02-15T20:24:25.868Z,10.02
2023-02-15T20:26:54.948Z,10.08
2023-02-15T20:29:23.586Z,9.79
2023-02-15T20:31:54.079Z,10.13
2023-02-15T20:34:22.974Z,9.98
2023-02-15T20:36:51.019Z,9.95
2023-02-15T20:39:20.680Z,10.08
2023-02-15T20:41:48.667Z,9.99
2023-02-15T20:44:25.790Z,10.03
2023-02-15T20:46:57.087Z,9.97
2023-02-15T20:49:27.371Z,10.01
2023-02-15T20:51:58.357Z,9.94
2023-02-15T20:54:30.900Z,9.96
2023-02-15T20:56:59.184Z,10.06
2023-02-15T20:59:30.549Z,9.99
2023-02-15T21:02:02.435Z,9.82
2023-02-15T21:04:33.852Z,9.98
2023-02-15T21:07:01.846Z,9.87
2023-02-15T21:09:30.311Z,9.91
2023-02-15T21:12:02.248Z,9.94
2023-02-15T21:14:31.423Z,9.77
2023-02-15T21:16:59.318Z,9.97
2023-02-15T21:19:28.057Z,9.92
2023-02-15T21:21:56.532Z,10.11
2023-02-15T21:24:27.971Z,9.88
2023-02-15T21:26:58.213Z,10.00
2023-02-15T21:29:30.218Z,9.82
2023-02-15T21:32:00.452Z,9.72
2023-02-15T21:34:28.233Z,9.87
2023-02-15T21:36:56.159Z,9.77
2023-02-15T21:39:27.977Z,9.86
2023-02-15T21:42:14.665Z,9.65
2023-02-15T21:45:00.645Z,9.76
2023-02-15T21:47:49.952Z,9.86
2023-02-15T21:50:38.466Z,9.79
2023-02-15T21:53:11.138Z,9.79
2023-02-15T21:55:39.097Z,9.65
2023-02-15T21:58:07.176Z,9.75
2023-02-15T22:00:35.158Z,9.84
2023-02-15T22:03:06.702Z,9.93
2023-02-15T22:05:35.106Z,9.85
2023-02-15T22:08:02.983Z,9.93
2023-02-15T22:10:33.563Z,9.86
2023-02-15T22:13:03.226Z,9.96
2023-02-15T22:15:37.069Z,9.69
2023-02-15T22:18:07.411Z,9.87
2023-02-15T22:20:35.003Z,9.60
2023-02-15T22:23:02.773Z,9.62
2023-02-15T22:25:30.641Z,9.69
2023-02-15T22:27:58.558Z,9.80
2023-02-15T22:30:29.451Z,9.48
2023-02-15T22:32:59.296Z,9.37
2023-02-15T22:35:32.417Z,9.64
2023-02-15T22:38:01.382Z,9.73
2023-02-15T22:40:33.177Z,9.57
2023-02-15T22:43:04.821Z,9.72
2023-02-15T22:45:36.205Z,9.51
2023-02-15T22:48:04.434Z,9.39
2023-02-15T22:50:36.364Z,9.32
2023-02-15T22:53:05.568Z,9.17
2023-02-15T22:55:38.058Z,9.21
2023-02-15T22:58:07.446Z,9.13
2023-02-15T23:00:40.497Z,9.06
2023-02-15T23:03:16.820Z,8.82
2023-02-15T23:05:46.850Z,8.95
2023-02-15T23:08:15.562Z,8.90
2023-02-15T23:10:46.334Z,8.89
2023-02-15T23:13:25.924Z,8.92
2023-02-15T23:15:58.315Z,8.70
2023-02-15T23:18:31.967Z,8.95
2023-02-15T23:21:05.108Z,8.81
2023-02-15T23:23:38.044Z,8.79
2023-02-15T23:26:17.130Z,9.07
2023-02-15T23:28:46.339Z,8.83
2023-02-15T23:31:20.554Z,8.74
2023-02-15T23:33:49.918Z,8.98
2023-02-15T23:36:31.820Z,9.06
2023-02-15T23:39:25.331Z,9.01
2023-02-15T23:41:53.230Z,8.98
2023-02-15T23:44:21.232Z,8.90
2023-02-15T23:46:51.588Z,8.90
2023-02-15T23:49:21.011Z,8.80
2023-02-15T23:51:52.792Z,8.69
2023-02-15T23:54:23.540Z,8.46
2023-02-15T23:56:54.606Z,8.60
2023-02-15T23:59:27.105Z,8.65
